sensor_id;sensor_type;location;lat;lon;timestamp;temperature;humidity
15143;DHT22;7672;50.834;6.286;2022-08-11T00:01:20;22.90;89.60
15143;DHT22;7672;50.834;6.286;2022-08-11T00:03:52;22.90;90.10
15143;DHT22;7672;50.834;6.286;2022-08-11T00:06:25;22.80;90.20
15143;DHT22;7672;50.834;6.286;2022-08-11T00:09:06;22.70;90.30
15143;DHT22;7672;50.834;6.286;2022-08-11T00:11:37;22.60;90.60
15143;DHT22;7672;50.834;6.286;2022-08-11T00:19:33;22.30;91.40
15143;DHT22;7672;50.834;6.286;2022-08-11T00:22:22;22.20;91.60
15143;DHT22;7672;50.834;6.286;2022-08-11T00:24:50;22.10;91.90
15143;DHT22;7672;50.834;6.286;2022-08-11T00:27:34;22.00;92.20
15143;DHT22;7672;50.834;6.286;2022-08-11T00:30:04;21.80;92.40
15143;DHT22;7672;50.834;6.286;2022-08-11T00:32:32;21.90;92.80
15143;DHT22;7672;50.834;6.286;2022-08-11T00:35:02;21.80;93.20
15143;DHT22;7672;50.834;6.286;2022-08-11T00:37:53;21.80;93.50
15143;DHT22;7672;50.834;6.286;2022-08-11T00:43:23;21.70;93.40
15143;DHT22;7672;50.834;6.286;2022-08-11T00:49:15;21.70;93.70
15143;DHT22;7672;50.834;6.286;2022-08-11T00:52:35;21.60;94.10
15143;DHT22;7672;50.834;6.286;2022-08-11T01:24:14;20.80;97.70
15143;DHT22;7672;50.834;6.286;2022-08-11T01:27:19;20.70;98.00
15143;DHT22;7672;50.834;6.286;2022-08-11T01:30:18;20.60;98.40
15143;DHT22;7672;50.834;6.286;2022-08-11T01:39:36;20.50;99.80
15143;DHT22;7672;50.834;6.286;2022-08-11T01:46:12;20.30;99.90
15143;DHT22;7672;50.834;6.286;2022-08-11T01:49:22;20.30;99.90
15143;DHT22;7672;50.834;6.286;2022-08-11T01:52:29;20.20;99.90
15143;DHT22;7672;50.834;6.286;2022-08-11T01:55:24;20.20;99.90
15143;DHT22;7672;50.834;6.286;2022-08-11T01:58:32;20.10;99.90
15143;DHT22;7672;50.834;6.286;2022-08-11T02:04:40;20.00;99.90
15143;DHT22;7672;50.834;6.286;2022-08-11T02:10:43;20.00;99.90
15143;DHT22;7672;50.834;6.286;2022-08-11T02:19:32;20.00;99.90
15143;DHT22;7672;50.834;6.286;2022-08-11T02:22:38;20.10;99.90
15143;DHT22;7672;50.834;6.286;2022-08-11T02:34:47;20.10;99.90
15143;DHT22;7672;50.834;6.286;2022-08-11T02:46:28;20.10;99.90
15143;DHT22;7672;50.834;6.286;2022-08-11T02:52:07;20.10;99.90
15143;DHT22;7672;50.834;6.286;2022-08-11T02:55:12;20.00;99.90
15143;DHT22;7672;50.834;6.286;2022-08-11T02:58:16;20.00;99.90
15143;DHT22;7672;50.834;6.286;2022-08-11T03:01:02;20.00;99.90
15143;DHT22;7672;50.834;6.286;2022-08-11T03:03:52;19.90;99.90
15143;DHT22;7672;50.834;6.286;2022-08-11T03:06:51;20.10;99.90
15143;DHT22;7672;50.834;6.286;2022-08-11T03:09:49;19.80;99.90
15143;DHT22;7672;50.834;6.286;2022-08-11T03:12:44;19.80;99.90
15143;DHT22;7672;50.834;6.286;2022-08-11T03:22:23;19.60;99.90
15143;DHT22;7672;50.834;6.286;2022-08-11T03:28:20;19.50;99.90
15143;DHT22;7672;50.834;6.286;2022-08-11T03:34:08;19.40;99.90
15143;DHT22;7672;50.834;6.286;2022-08-11T04:04:46;19.10;99.90
15143;DHT22;7672;50.834;6.286;2022-08-11T04:08:03;19.10;99.90
15143;DHT22;7672;50.834;6.286;2022-08-11T04:20:58;19.00;99.90
15143;DHT22;7672;50.834;6.286;2022-08-11T04:36:34;19.00;99.90
15143;DHT22;7672;50.834;6.286;2022-08-11T04:43:00;19.10;99.90
15143;DHT22;7672;50.834;6.286;2022-08-11T04:52:33;19.30;99.90
15143;DHT22;7672;50.834;6.286;2022-08-11T05:02:30;19.60;99.90
15143;DHT22;7672;50.834;6.286;2022-08-11T05:08:49;20.00;99.90
15143;DHT22;7672;50.834;6.286;2022-08-11T05:14:21;20.20;99.90
15143;DHT22;7672;50.834;6.286;2022-08-11T05:17:16;20.30;99.90
15143;DHT22;7672;50.834;6.286;2022-08-11T05:20:17;20.50;99.90
15143;DHT22;7672;50.834;6.286;2022-08-11T05:23:04;20.60;99.90
15143;DHT22;7672;50.834;6.286;2022-08-11T05:25:55;20.80;99.90
15143;DHT22;7672;50.834;6.286;2022-08-11T05:29:24;20.90;99.90
15143;DHT22;7672;50.834;6.286;2022-08-11T05:32:15;21.10;99.90
15143;DHT22;7672;50.834;6.286;2022-08-11T05:35:04;21.40;99.90
15143;DHT22;7672;50.834;6.286;2022-08-11T05:37:40;21.50;99.90
15143;DHT22;7672;50.834;6.286;2022-08-11T05:40:28;21.70;99.90
15143;DHT22;7672;50.834;6.286;2022-08-11T05:43:18;21.90;99.90
15143;DHT22;7672;50.834;6.286;2022-08-11T05:46:27;22.10;99.90
15143;DHT22;7672;50.834;6.286;2022-08-11T05:49:14;22.30;99.90
15143;DHT22;7672;50.834;6.286;2022-08-11T05:52:02;22.40;99.90
15143;DHT22;7672;50.834;6.286;2022-08-11T05:55:04;22.60;99.90
15143;DHT22;7672;50.834;6.286;2022-08-11T05:57:56;22.70;99.90
15143;DHT22;7672;50.834;6.286;2022-08-11T06:00:28;22.90;99.90
15143;DHT22;7672;50.834;6.286;2022-08-11T06:02:57;23.00;99.90
15143;DHT22;7672;50.834;6.286;2022-08-11T06:05:33;23.10;99.90
15143;DHT22;7672;50.834;6.286;2022-08-11T06:08:10;23.20;99.90
15143;DHT22;7672;50.834;6.286;2022-08-11T06:10:41;23.30;99.90
15143;DHT22;7672;50.834;6.286;2022-08-11T06:13:14;23.40;99.80
15143;DHT22;7672;50.834;6.286;2022-08-11T06:15:49;23.50;99.90
15143;DHT22;7672;50.834;6.286;2022-08-11T06:18:32;23.70;98.90
15143;DHT22;7672;50.834;6.286;2022-08-11T06:21:01;23.80;98.90
15143;DHT22;7672;50.834;6.286;2022-08-11T06:23:34;24.00;98.70
15143;DHT22;7672;50.834;6.286;2022-08-11T06:26:09;24.10;97.30
15143;DHT22;7672;50.834;6.286;2022-08-11T06:28:40;24.20;96.80
15143;DHT22;7672;50.834;6.286;2022-08-11T06:31:20;24.40;96.70
15143;DHT22;7672;50.834;6.286;2022-08-11T06:36:39;24.60;95.90
15143;DHT22;7672;50.834;6.286;2022-08-11T06:42:56;24.90;95.00
15143;DHT22;7672;50.834;6.286;2022-08-11T06:48:03;25.20;94.60
15143;DHT22;7672;50.834;6.286;2022-08-11T06:50:33;25.30;94.30
15143;DHT22;7672;50.834;6.286;2022-08-11T06:53:19;25.50;94.70
15143;DHT22;7672;50.834;6.286;2022-08-11T06:55:47;25.60;94.00
15143;DHT22;7672;50.834;6.286;2022-08-11T06:58:37;25.70;93.40
15143;DHT22;7672;50.834;6.286;2022-08-11T07:04:23;26.10;92.70
15143;DHT22;7672;50.834;6.286;2022-08-11T07:13:48;26.80;91.20
15143;DHT22;7672;50.834;6.286;2022-08-11T07:16:40;27.10;90.10
15143;DHT22;7672;50.834;6.286;2022-08-11T07:19:11;27.20;89.40
15143;DHT22;7672;50.834;6.286;2022-08-11T07:22:02;27.50;88.50
15143;DHT22;7672;50.834;6.286;2022-08-11T07:24:53;27.70;86.90
15143;DHT22;7672;50.834;6.286;2022-08-11T07:27:45;27.90;86.50
15143;DHT22;7672;50.834;6.286;2022-08-11T07:30:38;28.20;83.80
15143;DHT22;7672;50.834;6.286;2022-08-11T07:33:08;28.50;82.10
15143;DHT22;7672;50.834;6.286;2022-08-11T07:35:59;28.80;82.20
15143;DHT22;7672;50.834;6.286;2022-08-11T07:38:37;29.10;80.60
15143;DHT22;7672;50.834;6.286;2022-08-11T07:41:15;29.30;79.60
15143;DHT22;7672;50.834;6.286;2022-08-11T07:43:47;29.60;79.70
15143;DHT22;7672;50.834;6.286;2022-08-11T07:46:18;29.90;80.70
15143;DHT22;7672;50.834;6.286;2022-08-11T07:49:06;30.20;79.90
15143;DHT22;7672;50.834;6.286;2022-08-11T07:51:53;30.60;77.70
15143;DHT22;7672;50.834;6.286;2022-08-11T07:54:47;31.00;75.60
15143;DHT22;7672;50.834;6.286;2022-08-11T07:57:17;31.30;74.40
15143;DHT22;7672;50.834;6.286;2022-08-11T08:00:25;31.60;74.20
15143;DHT22;7672;50.834;6.286;2022-08-11T08:03:17;31.90;72.80
15143;DHT22;7672;50.834;6.286;2022-08-11T08:06:20;32.10;72.80
15143;DHT22;7672;50.834;6.286;2022-08-11T08:09:07;32.30;70.70
15143;DHT22;7672;50.834;6.286;2022-08-11T08:11:54;32.40;71.40
15143;DHT22;7672;50.834;6.286;2022-08-11T08:14:40;32.70;71.10
15143;DHT22;7672;50.834;6.286;2022-08-11T08:17:28;32.90;69.40
15143;DHT22;7672;50.834;6.286;2022-08-11T08:20:45;33.10;69.50
15143;DHT22;7672;50.834;6.286;2022-08-11T08:23:19;33.50;68.20
15143;DHT22;7672;50.834;6.286;2022-08-11T08:26:03;33.70;67.10
15143;DHT22;7672;50.834;6.286;2022-08-11T08:28:54;34.00;65.40
15143;DHT22;7672;50.834;6.286;2022-08-11T08:31:43;34.20;65.20
15143;DHT22;7672;50.834;6.286;2022-08-11T08:34:12;34.40;63.50
15143;DHT22;7672;50.834;6.286;2022-08-11T08:36:45;34.50;63.30
15143;DHT22;7672;50.834;6.286;2022-08-11T08:39:13;34.60;62.70
15143;DHT22;7672;50.834;6.286;2022-08-11T08:41:42;34.70;63.10
15143;DHT22;7672;50.834;6.286;2022-08-11T08:44:11;34.90;63.00
15143;DHT22;7672;50.834;6.286;2022-08-11T08:47:03;35.00;62.30
15143;DHT22;7672;50.834;6.286;2022-08-11T08:49:35;35.20;61.50
15143;DHT22;7672;50.834;6.286;2022-08-11T08:52:13;35.40;61.80
15143;DHT22;7672;50.834;6.286;2022-08-11T08:55:05;35.60;60.80
15143;DHT22;7672;50.834;6.286;2022-08-11T08:57:36;35.80;60.10
15143;DHT22;7672;50.834;6.286;2022-08-11T09:00:07;36.00;59.60
15143;DHT22;7672;50.834;6.286;2022-08-11T09:02:41;36.10;59.00
15143;DHT22;7672;50.834;6.286;2022-08-11T09:05:11;36.20;59.30
15143;DHT22;7672;50.834;6.286;2022-08-11T09:07:39;36.20;58.80
15143;DHT22;7672;50.834;6.286;2022-08-11T09:10:08;36.30;58.00
15143;DHT22;7672;50.834;6.286;2022-08-11T09:12:39;36.50;58.00
15143;DHT22;7672;50.834;6.286;2022-08-11T09:15:09;36.60;57.40
15143;DHT22;7672;50.834;6.286;2022-08-11T09:17:56;36.60;56.40
15143;DHT22;7672;50.834;6.286;2022-08-11T09:20:33;36.70;57.50
15143;DHT22;7672;50.834;6.286;2022-08-11T09:23:07;36.80;56.50
15143;DHT22;7672;50.834;6.286;2022-08-11T09:26:13;37.00;55.80
15143;DHT22;7672;50.834;6.286;2022-08-11T09:29:09;37.10;55.60
15143;DHT22;7672;50.834;6.286;2022-08-11T09:31:37;37.10;56.50
15143;DHT22;7672;50.834;6.286;2022-08-11T09:34:08;37.40;54.80
15143;DHT22;7672;50.834;6.286;2022-08-11T09:36:39;37.30;54.30
15143;DHT22;7672;50.834;6.286;2022-08-11T09:39:29;37.40;53.30
15143;DHT22;7672;50.834;6.286;2022-08-11T09:42:19;37.40;52.70
15143;DHT22;7672;50.834;6.286;2022-08-11T09:44:49;37.50;52.50
15143;DHT22;7672;50.834;6.286;2022-08-11T09:47:25;37.60;52.90
15143;DHT22;7672;50.834;6.286;2022-08-11T09:49:58;37.80;52.00
15143;DHT22;7672;50.834;6.286;2022-08-11T09:52:38;37.90;51.40
15143;DHT22;7672;50.834;6.286;2022-08-11T09:55:26;38.10;51.40
15143;DHT22;7672;50.834;6.286;2022-08-11T09:57:53;38.20;51.30
15143;DHT22;7672;50.834;6.286;2022-08-11T10:01:00;38.20;50.90
15143;DHT22;7672;50.834;6.286;2022-08-11T10:03:30;38.30;50.70
15143;DHT22;7672;50.834;6.286;2022-08-11T10:06:05;38.40;50.80
15143;DHT22;7672;50.834;6.286;2022-08-11T10:09:17;38.50;50.70
15143;DHT22;7672;50.834;6.286;2022-08-11T10:11:53;38.60;50.60
15143;DHT22;7672;50.834;6.286;2022-08-11T10:14:25;38.70;50.10
15143;DHT22;7672;50.834;6.286;2022-08-11T10:17:16;38.80;49.90
15143;DHT22;7672;50.834;6.286;2022-08-11T10:19:47;38.80;48.60
15143;DHT22;7672;50.834;6.286;2022-08-11T10:22:32;38.80;48.80
15143;DHT22;7672;50.834;6.286;2022-08-11T10:25:20;38.80;48.30
15143;DHT22;7672;50.834;6.286;2022-08-11T10:28:07;38.70;48.90
15143;DHT22;7672;50.834;6.286;2022-08-11T10:30:56;38.60;48.20
15143;DHT22;7672;50.834;6.286;2022-08-11T10:33:44;38.40;47.80
15143;DHT22;7672;50.834;6.286;2022-08-11T10:36:35;38.30;49.50
15143;DHT22;7672;50.834;6.286;2022-08-11T10:39:20;38.20;49.00
15143;DHT22;7672;50.834;6.286;2022-08-11T10:41:48;38.20;50.10
15143;DHT22;7672;50.834;6.286;2022-08-11T10:44:50;38.20;49.00
15143;DHT22;7672;50.834;6.286;2022-08-11T10:47:19;38.20;48.90
15143;DHT22;7672;50.834;6.286;2022-08-11T10:50:12;38.30;49.80
15143;DHT22;7672;50.834;6.286;2022-08-11T10:52:59;38.40;49.00
15143;DHT22;7672;50.834;6.286;2022-08-11T10:55:45;38.50;48.20
15143;DHT22;7672;50.834;6.286;2022-08-11T10:58:32;38.60;48.20
15143;DHT22;7672;50.834;6.286;2022-08-11T11:01:23;38.60;47.90
15143;DHT22;7672;50.834;6.286;2022-08-11T11:04:01;38.50;47.60
15143;DHT22;7672;50.834;6.286;2022-08-11T11:06:57;38.50;48.10
15143;DHT22;7672;50.834;6.286;2022-08-11T11:09:56;38.50;47.80
15143;DHT22;7672;50.834;6.286;2022-08-11T11:12:29;38.50;47.80
15143;DHT22;7672;50.834;6.286;2022-08-11T11:15:20;38.30;47.40
15143;DHT22;7672;50.834;6.286;2022-08-11T11:18:11;38.10;48.00
15143;DHT22;7672;50.834;6.286;2022-08-11T11:20:53;37.90;47.90
15143;DHT22;7672;50.834;6.286;2022-08-11T11:23:27;37.70;48.50
15143;DHT22;7672;50.834;6.286;2022-08-11T11:26:30;37.60;48.80
15143;DHT22;7672;50.834;6.286;2022-08-11T11:37:50;37.00;48.50
15143;DHT22;7672;50.834;6.286;2022-08-11T11:40:31;36.90;49.10
15143;DHT22;7672;50.834;6.286;2022-08-11T11:43:17;36.80;49.60
15143;DHT22;7672;50.834;6.286;2022-08-11T11:45:44;36.80;49.50
15143;DHT22;7672;50.834;6.286;2022-08-11T11:48:11;36.70;50.00
15143;DHT22;7672;50.834;6.286;2022-08-11T11:50:38;36.70;50.20
15143;DHT22;7672;50.834;6.286;2022-08-11T11:53:09;36.70;49.70
15143;DHT22;7672;50.834;6.286;2022-08-11T11:55:37;36.60;49.90
15143;DHT22;7672;50.834;6.286;2022-08-11T11:58:05;36.50;49.60
15143;DHT22;7672;50.834;6.286;2022-08-11T12:00:51;36.50;50.10
15143;DHT22;7672;50.834;6.286;2022-08-11T12:03:39;36.50;50.80
15143;DHT22;7672;50.834;6.286;2022-08-11T12:06:07;36.40;49.40
15143;DHT22;7672;50.834;6.286;2022-08-11T12:08:39;36.20;49.60
15143;DHT22;7672;50.834;6.286;2022-08-11T12:11:10;36.00;49.80
15143;DHT22;7672;50.834;6.286;2022-08-11T12:14:01;35.80;50.40
15143;DHT22;7672;50.834;6.286;2022-08-11T12:16:40;35.70;50.90
15143;DHT22;7672;50.834;6.286;2022-08-11T12:19:15;35.60;50.70
15143;DHT22;7672;50.834;6.286;2022-08-11T12:21:45;35.50;50.90
15143;DHT22;7672;50.834;6.286;2022-08-11T12:24:34;35.50;50.70
15143;DHT22;7672;50.834;6.286;2022-08-11T12:27:20;35.40;52.50
15143;DHT22;7672;50.834;6.286;2022-08-11T12:30:00;35.30;50.90
15143;DHT22;7672;50.834;6.286;2022-08-11T12:32:35;35.30;51.00
15143;DHT22;7672;50.834;6.286;2022-08-11T12:35:05;35.20;51.30
15143;DHT22;7672;50.834;6.286;2022-08-11T12:37:44;35.20;51.60
15143;DHT22;7672;50.834;6.286;2022-08-11T12:40:18;35.10;50.80
15143;DHT22;7672;50.834;6.286;2022-08-11T12:43:30;35.10;52.20
15143;DHT22;7672;50.834;6.286;2022-08-11T12:46:31;35.10;51.50
15143;DHT22;7672;50.834;6.286;2022-08-11T12:49:11;35.10;51.30
15143;DHT22;7672;50.834;6.286;2022-08-11T12:52:06;35.10;52.00
15143;DHT22;7672;50.834;6.286;2022-08-11T12:55:00;35.00;52.10
15143;DHT22;7672;50.834;6.286;2022-08-11T12:57:46;35.00;51.10
15143;DHT22;7672;50.834;6.286;2022-08-11T13:00:33;34.80;51.50
15143;DHT22;7672;50.834;6.286;2022-08-11T13:03:19;34.70;51.50
15143;DHT22;7672;50.834;6.286;2022-08-11T13:06:06;34.60;52.50
15143;DHT22;7672;50.834;6.286;2022-08-11T13:08:36;34.60;52.50
15143;DHT22;7672;50.834;6.286;2022-08-11T13:11:06;34.50;52.70
15143;DHT22;7672;50.834;6.286;2022-08-11T13:14:15;34.60;52.80
15143;DHT22;7672;50.834;6.286;2022-08-11T13:16:43;34.50;52.30
15143;DHT22;7672;50.834;6.286;2022-08-11T13:19:31;34.60;52.30
15143;DHT22;7672;50.834;6.286;2022-08-11T13:22:00;34.60;51.90
15143;DHT22;7672;50.834;6.286;2022-08-11T13:24:31;34.60;51.60
15143;DHT22;7672;50.834;6.286;2022-08-11T13:27:02;34.60;51.90
15143;DHT22;7672;50.834;6.286;2022-08-11T13:29:30;34.60;52.00
15143;DHT22;7672;50.834;6.286;2022-08-11T13:31:58;34.60;51.00
15143;DHT22;7672;50.834;6.286;2022-08-11T13:34:27;34.50;51.70
15143;DHT22;7672;50.834;6.286;2022-08-11T13:37:01;34.40;51.80
15143;DHT22;7672;50.834;6.286;2022-08-11T13:39:32;34.40;52.00
15143;DHT22;7672;50.834;6.286;2022-08-11T13:42:03;34.40;51.70
15143;DHT22;7672;50.834;6.286;2022-08-11T13:44:37;34.40;52.20
15143;DHT22;7672;50.834;6.286;2022-08-11T13:47:22;34.50;52.90
15143;DHT22;7672;50.834;6.286;2022-08-11T13:49:51;34.50;52.10
15143;DHT22;7672;50.834;6.286;2022-08-11T13:52:19;34.40;52.50
15143;DHT22;7672;50.834;6.286;2022-08-11T13:54:48;34.50;51.90
15143;DHT22;7672;50.834;6.286;2022-08-11T13:57:19;34.50;52.20
15143;DHT22;7672;50.834;6.286;2022-08-11T14:00:08;34.50;52.60
15143;DHT22;7672;50.834;6.286;2022-08-11T14:02:51;34.50;52.60
15143;DHT22;7672;50.834;6.286;2022-08-11T14:05:41;34.50;52.40
15143;DHT22;7672;50.834;6.286;2022-08-11T14:08:16;34.60;51.60
15143;DHT22;7672;50.834;6.286;2022-08-11T14:11:06;34.60;52.30
15143;DHT22;7672;50.834;6.286;2022-08-11T14:14:19;34.60;51.70
15143;DHT22;7672;50.834;6.286;2022-08-11T14:16:49;34.60;51.80
15143;DHT22;7672;50.834;6.286;2022-08-11T14:19:23;34.50;51.70
15143;DHT22;7672;50.834;6.286;2022-08-11T14:21:52;34.50;51.50
15143;DHT22;7672;50.834;6.286;2022-08-11T14:24:42;34.50;51.90
15143;DHT22;7672;50.834;6.286;2022-08-11T14:27:16;34.60;52.50
15143;DHT22;7672;50.834;6.286;2022-08-11T14:30:04;34.50;51.70
15143;DHT22;7672;50.834;6.286;2022-08-11T14:32:52;34.50;51.60
15143;DHT22;7672;50.834;6.286;2022-08-11T14:35:23;34.40;51.80
15143;DHT22;7672;50.834;6.286;2022-08-11T14:37:52;34.40;51.60
15143;DHT22;7672;50.834;6.286;2022-08-11T14:40:22;34.30;51.60
15143;DHT22;7672;50.834;6.286;2022-08-11T14:43:10;34.30;52.10
15143;DHT22;7672;50.834;6.286;2022-08-11T14:46:15;34.30;52.30
15143;DHT22;7672;50.834;6.286;2022-08-11T14:49:02;34.30;52.20
15143;DHT22;7672;50.834;6.286;2022-08-11T14:51:31;34.30;51.90
15143;DHT22;7672;50.834;6.286;2022-08-11T14:54:03;34.40;52.10
15143;DHT22;7672;50.834;6.286;2022-08-11T14:56:48;34.40;52.20
15143;DHT22;7672;50.834;6.286;2022-08-11T14:59:25;34.40;51.40
15143;DHT22;7672;50.834;6.286;2022-08-11T15:01:52;34.40;51.70
15143;DHT22;7672;50.834;6.286;2022-08-11T15:04:38;34.40;51.90
15143;DHT22;7672;50.834;6.286;2022-08-11T15:07:05;34.30;51.50
15143;DHT22;7672;50.834;6.286;2022-08-11T15:09:43;34.30;51.60
15143;DHT22;7672;50.834;6.286;2022-08-11T15:12:32;34.20;51.80
15143;DHT22;7672;50.834;6.286;2022-08-11T15:15:02;34.20;51.90
15143;DHT22;7672;50.834;6.286;2022-08-11T15:18:05;34.20;51.80
15143;DHT22;7672;50.834;6.286;2022-08-11T15:20:33;34.10;51.60
15143;DHT22;7672;50.834;6.286;2022-08-11T15:23:19;34.10;51.70
15143;DHT22;7672;50.834;6.286;2022-08-11T15:26:14;34.00;51.70
15143;DHT22;7672;50.834;6.286;2022-08-11T15:28:49;34.00;51.50
15143;DHT22;7672;50.834;6.286;2022-08-11T15:31:37;33.90;51.30
15143;DHT22;7672;50.834;6.286;2022-08-11T15:34:16;33.90;51.50
15143;DHT22;7672;50.834;6.286;2022-08-11T15:37:12;33.80;51.50
15143;DHT22;7672;50.834;6.286;2022-08-11T15:43:48;33.60;51.50
15143;DHT22;7672;50.834;6.286;2022-08-11T15:46:41;33.60;52.20
15143;DHT22;7672;50.834;6.286;2022-08-11T15:49:13;33.60;52.20
15143;DHT22;7672;50.834;6.286;2022-08-11T15:52:09;33.70;52.10
15143;DHT22;7672;50.834;6.286;2022-08-11T15:54:40;33.70;52.20
15143;DHT22;7672;50.834;6.286;2022-08-11T15:57:09;33.60;51.90
15143;DHT22;7672;50.834;6.286;2022-08-11T16:00:06;33.60;51.10
15143;DHT22;7672;50.834;6.286;2022-08-11T16:02:54;33.60;52.10
15143;DHT22;7672;50.834;6.286;2022-08-11T16:06:20;33.60;51.60
15143;DHT22;7672;50.834;6.286;2022-08-11T16:08:50;33.50;51.70
15143;DHT22;7672;50.834;6.286;2022-08-11T16:11:22;33.40;51.90
15143;DHT22;7672;50.834;6.286;2022-08-11T16:13:52;33.40;51.90
15143;DHT22;7672;50.834;6.286;2022-08-11T16:16:40;33.30;52.10
15143;DHT22;7672;50.834;6.286;2022-08-11T16:19:09;33.20;52.00
15143;DHT22;7672;50.834;6.286;2022-08-11T16:21:39;33.20;52.20
15143;DHT22;7672;50.834;6.286;2022-08-11T16:24:12;33.20;52.30
15143;DHT22;7672;50.834;6.286;2022-08-11T16:27:02;33.20;52.30
15143;DHT22;7672;50.834;6.286;2022-08-11T16:29:45;33.20;52.70
15143;DHT22;7672;50.834;6.286;2022-08-11T16:32:18;33.10;53.00
15143;DHT22;7672;50.834;6.286;2022-08-11T16:34:52;33.10;52.60
15143;DHT22;7672;50.834;6.286;2022-08-11T16:37:40;33.10;52.70
15143;DHT22;7672;50.834;6.286;2022-08-11T16:40:29;33.10;53.20
15143;DHT22;7672;50.834;6.286;2022-08-11T16:42:57;33.00;53.10
15143;DHT22;7672;50.834;6.286;2022-08-11T16:45:44;33.00;53.00
15143;DHT22;7672;50.834;6.286;2022-08-11T16:48:32;32.90;52.90
15143;DHT22;7672;50.834;6.286;2022-08-11T16:51:05;32.90;53.70
15143;DHT22;7672;50.834;6.286;2022-08-11T16:53:33;32.90;53.30
15143;DHT22;7672;50.834;6.286;2022-08-11T16:56:26;32.90;53.50
15143;DHT22;7672;50.834;6.286;2022-08-11T16:58:56;32.80;53.50
15143;DHT22;7672;50.834;6.286;2022-08-11T17:04:20;32.70;53.30
15143;DHT22;7672;50.834;6.286;2022-08-11T17:07:24;32.80;53.40
15143;DHT22;7672;50.834;6.286;2022-08-11T17:10:29;32.70;53.60
15143;DHT22;7672;50.834;6.286;2022-08-11T17:13:30;32.70;53.60
15143;DHT22;7672;50.834;6.286;2022-08-11T17:16:25;32.60;53.70
15143;DHT22;7672;50.834;6.286;2022-08-11T17:19:21;32.60;53.80
15143;DHT22;7672;50.834;6.286;2022-08-11T17:22:18;32.60;54.00
15143;DHT22;7672;50.834;6.286;2022-08-11T17:25:10;32.50;53.90
15143;DHT22;7672;50.834;6.286;2022-08-11T17:27:39;32.50;54.20
15143;DHT22;7672;50.834;6.286;2022-08-11T17:30:10;32.50;54.30
15143;DHT22;7672;50.834;6.286;2022-08-11T17:32:40;32.50;54.20
15143;DHT22;7672;50.834;6.286;2022-08-11T17:35:35;32.50;54.10
15143;DHT22;7672;50.834;6.286;2022-08-11T17:38:16;32.40;54.40
15143;DHT22;7672;50.834;6.286;2022-08-11T17:40:50;32.30;54.60
15143;DHT22;7672;50.834;6.286;2022-08-11T17:43:46;32.20;54.60
15143;DHT22;7672;50.834;6.286;2022-08-11T17:46:34;32.20;54.20
15143;DHT22;7672;50.834;6.286;2022-08-11T17:49:29;32.20;54.00
15143;DHT22;7672;50.834;6.286;2022-08-11T17:52:04;32.20;53.90
15143;DHT22;7672;50.834;6.286;2022-08-11T17:54:52;32.10;54.10
15143;DHT22;7672;50.834;6.286;2022-08-11T17:58:02;32.10;54.00
15143;DHT22;7672;50.834;6.286;2022-08-11T18:00:49;32.10;54.50
15143;DHT22;7672;50.834;6.286;2022-08-11T18:03:17;32.00;53.90
15143;DHT22;7672;50.834;6.286;2022-08-11T18:06:00;32.00;54.20
15143;DHT22;7672;50.834;6.286;2022-08-11T18:08:30;31.90;54.40
15143;DHT22;7672;50.834;6.286;2022-08-11T18:11:21;31.90;54.50
15143;DHT22;7672;50.834;6.286;2022-08-11T18:14:31;31.80;54.20
15143;DHT22;7672;50.834;6.286;2022-08-11T18:17:18;31.80;54.60
15143;DHT22;7672;50.834;6.286;2022-08-11T18:20:05;31.70;54.60
15143;DHT22;7672;50.834;6.286;2022-08-11T18:22:53;31.70;54.90
15143;DHT22;7672;50.834;6.286;2022-08-11T18:25:44;31.60;55.00
15143;DHT22;7672;50.834;6.286;2022-08-11T18:28:41;31.50;55.20
15143;DHT22;7672;50.834;6.286;2022-08-11T18:31:32;31.50;56.00
15143;DHT22;7672;50.834;6.286;2022-08-11T18:34:31;31.40;57.20
15143;DHT22;7672;50.834;6.286;2022-08-11T18:37:26;31.40;58.50
15143;DHT22;7672;50.834;6.286;2022-08-11T18:40:21;31.30;57.80
15143;DHT22;7672;50.834;6.286;2022-08-11T18:43:11;31.10;57.40
15143;DHT22;7672;50.834;6.286;2022-08-11T18:46:05;31.00;57.00
15143;DHT22;7672;50.834;6.286;2022-08-11T18:48:58;30.80;57.00
15143;DHT22;7672;50.834;6.286;2022-08-11T18:51:50;30.80;58.00
15143;DHT22;7672;50.834;6.286;2022-08-11T18:54:40;30.60;57.80
15143;DHT22;7672;50.834;6.286;2022-08-11T18:57:27;30.50;57.80
15143;DHT22;7672;50.834;6.286;2022-08-11T19:00:21;30.40;58.00
15143;DHT22;7672;50.834;6.286;2022-08-11T19:03:10;30.20;58.30
15143;DHT22;7672;50.834;6.286;2022-08-11T19:06:09;30.10;58.70
15143;DHT22;7672;50.834;6.286;2022-08-11T19:09:09;30.00;58.80
15143;DHT22;7672;50.834;6.286;2022-08-11T19:11:58;29.90;59.10
15143;DHT22;7672;50.834;6.286;2022-08-11T19:14:47;29.80;59.50
15143;DHT22;7672;50.834;6.286;2022-08-11T19:17:38;29.70;59.70
15143;DHT22;7672;50.834;6.286;2022-08-11T19:20:28;29.60;60.00
15143;DHT22;7672;50.834;6.286;2022-08-11T19:23:24;29.50;60.50
15143;DHT22;7672;50.834;6.286;2022-08-11T19:26:17;29.40;60.30
15143;DHT22;7672;50.834;6.286;2022-08-11T19:29:06;29.30;60.90
15143;DHT22;7672;50.834;6.286;2022-08-11T19:32:14;29.20;61.30
15143;DHT22;7672;50.834;6.286;2022-08-11T19:35:01;29.10;62.50
15143;DHT22;7672;50.834;6.286;2022-08-11T19:37:48;29.00;61.80
15143;DHT22;7672;50.834;6.286;2022-08-11T19:40:37;29.00;63.40
15143;DHT22;7672;50.834;6.286;2022-08-11T19:43:25;29.00;63.50
15143;DHT22;7672;50.834;6.286;2022-08-11T19:46:14;28.70;62.80
15143;DHT22;7672;50.834;6.286;2022-08-11T19:49:04;28.50;63.10
15143;DHT22;7672;50.834;6.286;2022-08-11T19:51:51;28.40;62.40
15143;DHT22;7672;50.834;6.286;2022-08-11T19:54:40;28.30;62.70
15143;DHT22;7672;50.834;6.286;2022-08-11T19:57:28;28.20;62.80
15143;DHT22;7672;50.834;6.286;2022-08-11T20:00:18;28.20;63.00
15143;DHT22;7672;50.834;6.286;2022-08-11T20:03:08;28.10;63.90
15143;DHT22;7672;50.834;6.286;2022-08-11T20:05:59;28.00;63.60
15143;DHT22;7672;50.834;6.286;2022-08-11T20:08:48;27.90;64.10
15143;DHT22;7672;50.834;6.286;2022-08-11T20:11:38;27.90;63.80
15143;DHT22;7672;50.834;6.286;2022-08-11T20:14:27;27.80;64.70
15143;DHT22;7672;50.834;6.286;2022-08-11T20:17:17;27.80;64.70
15143;DHT22;7672;50.834;6.286;2022-08-11T20:20:06;27.70;65.50
15143;DHT22;7672;50.834;6.286;2022-08-11T20:22:54;27.60;66.40
15143;DHT22;7672;50.834;6.286;2022-08-11T20:25:41;27.50;66.10
15143;DHT22;7672;50.834;6.286;2022-08-11T20:28:51;27.50;66.20
15143;DHT22;7672;50.834;6.286;2022-08-11T20:31:40;27.40;65.50
15143;DHT22;7672;50.834;6.286;2022-08-11T20:34:35;27.30;65.20
15143;DHT22;7672;50.834;6.286;2022-08-11T20:37:24;27.40;66.30
15143;DHT22;7672;50.834;6.286;2022-08-11T20:40:20;27.20;66.10
15143;DHT22;7672;50.834;6.286;2022-08-11T20:43:14;27.10;67.30
15143;DHT22;7672;50.834;6.286;2022-08-11T20:46:24;27.10;66.40
15143;DHT22;7672;50.834;6.286;2022-08-11T20:49:12;26.90;65.80
15143;DHT22;7672;50.834;6.286;2022-08-11T20:52:19;26.90;65.80
15143;DHT22;7672;50.834;6.286;2022-08-11T20:55:08;26.80;66.50
15143;DHT22;7672;50.834;6.286;2022-08-11T20:58:17;26.80;66.30
15143;DHT22;7672;50.834;6.286;2022-08-11T21:01:25;26.80;66.20